Time;durP1;ratioP1;P1;durP2;ratioP2;P2;SDS_P1;SDS_P2;PMS_P1;PMS_P2;Temp;Humidity;BMP_temperature;BMP_pressure;BME280_temperature;BME280_humidity;BME280_pressure;Samples;Min_cycle;Max_cycle;Signal;HPM_P1;HPM_P2
2023/05/25 00:01:11;;;;;;;8.17;2.67;;;;;;;;;;5105027;28;20412;-80
2023/05/25 00:03:39;;;;;;;6.33;2.20;;;;;;;;;;5104484;28;20469;-80
2023/05/25 00:06:06;;;;;;;4.67;2.87;;;;;;;;;;5101592;28;20826;-80
2023/05/25 00:08:31;;;;;;;8.57;3.67;;;;;;;;;;5105281;28;20953;-80
2023/05/25 00:10:57;;;;;;;6.27;2.67;;;;;;;;;;5106282;28;20417;-80
2023/05/25 00:13:23;;;;;;;5.47;2.93;;;;;;;;;;5105878;28;20406;-81
2023/05/25 00:15:49;;;;;;;4.13;3.07;;;;;;;;;;5105196;28;20503;-80
2023/05/25 00:18:15;;;;;;;9.10;3.00;;;;;;;;;;5105359;28;20468;-81
2023/05/25 00:20:43;;;;;;;10.60;3.80;;;;;;;;;;5103806;28;20414;-80
2023/05/25 00:23:09;;;;;;;6.50;3.07;;;;;;;;;;5105046;28;20477;-81
2023/05/25 00:25:35;;;;;;;5.57;3.47;;;;;;;;;;5105567;28;20403;-81
2023/05/25 00:28:03;;;;;;;5.17;2.40;;;;;;;;;;5103971;28;20395;-81
2023/05/25 00:30:29;;;;;;;3.30;2.80;;;;;;;;;;5105630;28;20442;-81
2023/05/25 00:32:55;;;;;;;6.20;3.50;;;;;;;;;;5103275;28;20434;-81
2023/05/25 00:35:21;;;;;;;4.70;2.30;;;;;;;;;;5087751;28;20502;-81
2023/05/25 00:37:48;;;;;;;8.40;3.10;;;;;;;;;;5085667;28;20413;-81
2023/05/25 00:40:17;;;;;;;6.70;3.03;;;;;;;;;;5099255;28;20421;-81
2023/05/25 00:42:44;;;;;;;3.83;2.63;;;;;;;;;;5094984;28;20457;-80
2023/05/25 00:45:10;;;;;;;6.40;3.73;;;;;;;;;;5095048;28;20869;-80
2023/05/25 00:47:36;;;;;;;7.33;3.10;;;;;;;;;;5094995;28;20451;-80
2023/05/25 00:50:03;;;;;;;4.53;2.70;;;;;;;;;;5094954;28;20969;-80
2023/05/25 00:52:29;;;;;;;6.57;3.87;;;;;;;;;;5076394;28;20410;-80
2023/05/25 00:54:57;;;;;;;7.27;2.80;;;;;;;;;;5094879;28;20418;-80
2023/05/25 00:57:25;;;;;;;6.20;2.80;;;;;;;;;;5094834;28;20461;-80
2023/05/25 00:59:54;;;;;;;7.43;3.00;;;;;;;;;;5094801;28;20416;-80
2023/05/25 01:02:20;;;;;;;8.20;3.93;;;;;;;;;;5094045;28;20414;-80
2023/05/25 01:05:05;;;;;;;10.40;4.20;;;;;;;;;;5094039;28;20410;-81
2023/05/25 02:02:56;;;;;;;5.50;4.27;;;;;;;;;;5074234;28;21210;-80
2023/05/25 02:05:22;;;;;;;8.70;4.17;;;;;;;;;;5094106;28;20433;-81
2023/05/25 02:07:48;;;;;;;11.50;4.47;;;;;;;;;;5093518;28;20405;-80
2023/05/25 02:10:14;;;;;;;6.80;5.03;;;;;;;;;;5093353;28;20398;-79
2023/05/25 02:12:40;;;;;;;8.70;5.30;;;;;;;;;;5075471;28;20459;-80
2023/05/25 02:15:06;;;;;;;9.43;5.60;;;;;;;;;;5094089;28;20770;-79
2023/05/25 02:17:32;;;;;;;8.90;4.70;;;;;;;;;;5094103;28;20407;-80
2023/05/25 02:19:58;;;;;;;9.20;6.93;;;;;;;;;;5094112;28;20943;-80
2023/05/25 02:22:24;;;;;;;10.63;5.40;;;;;;;;;;5093743;28;20407;-80
2023/05/25 02:24:50;;;;;;;8.40;4.57;;;;;;;;;;5094041;28;20414;-80
2023/05/25 02:27:16;;;;;;;7.93;6.20;;;;;;;;;;5093969;28;20420;-80
2023/05/25 02:29:42;;;;;;;9.00;4.80;;;;;;;;;;5075637;28;20919;-80
2023/05/25 02:32:09;;;;;;;7.63;5.13;;;;;;;;;;5075710;28;20970;-80
2023/05/25 02:34:35;;;;;;;8.30;4.70;;;;;;;;;;5093785;28;20471;-80
2023/05/25 02:37:00;;;;;;;7.80;5.17;;;;;;;;;;5093377;28;20404;-80
2023/05/25 02:39:27;;;;;;;8.10;4.97;;;;;;;;;;5093763;28;20402;-80
2023/05/25 02:41:53;;;;;;;8.17;5.57;;;;;;;;;;5093709;28;20426;-80
2023/05/25 02:44:19;;;;;;;6.23;4.13;;;;;;;;;;5093619;28;20460;-79
2023/05/25 02:46:45;;;;;;;8.43;6.50;;;;;;;;;;5075393;28;20417;-79
2023/05/25 02:49:11;;;;;;;6.97;5.23;;;;;;;;;;5093607;28;20407;-79
2023/05/25 02:51:37;;;;;;;7.00;4.90;;;;;;;;;;5093345;28;20410;-80
2023/05/25 02:54:03;;;;;;;5.93;5.23;;;;;;;;;;5093442;28;20255;-79
2023/05/25 02:56:28;;;;;;;13.90;5.60;;;;;;;;;;5093474;28;20418;-79
2023/05/25 02:58:54;;;;;;;12.43;5.77;;;;;;;;;;5093331;28;20412;-79
2023/05/25 03:01:20;;;;;;;7.60;5.40;;;;;;;;;;5093422;28;20443;-79
2023/05/25 03:03:51;;;;;;;11.77;6.67;;;;;;;;;;5093200;28;20493;-79
2023/05/25 03:06:17;;;;;;;17.57;6.17;;;;;;;;;;5093208;28;20404;-80
2023/05/25 03:08:42;;;;;;;12.90;5.27;;;;;;;;;;5093368;28;20754;-80
2023/05/25 03:11:08;;;;;;;7.70;5.83;;;;;;;;;;5093256;28;20413;-81
2023/05/25 03:13:34;;;;;;;8.23;5.87;;;;;;;;;;5093222;28;20471;-80
2023/05/25 03:16:00;;;;;;;9.20;5.10;;;;;;;;;;5075161;28;20410;-80
2023/05/25 03:18:27;;;;;;;15.60;6.67;;;;;;;;;;5075292;28;20421;-80
2023/05/25 03:20:53;;;;;;;6.60;4.53;;;;;;;;;;5092869;28;20415;-80
2023/05/25 03:23:18;;;;;;;9.07;5.87;;;;;;;;;;5093182;28;20471;-81
2023/05/25 03:25:45;;;;;;;7.97;5.07;;;;;;;;;;5092512;28;20401;-80
2023/05/25 03:28:11;;;;;;;9.70;4.77;;;;;;;;;;5093025;28;20422;-80
2023/05/25 03:30:39;;;;;;;9.97;5.60;;;;;;;;;;5093051;28;20401;-80
2023/05/25 03:33:05;;;;;;;15.50;5.80;;;;;;;;;;5074858;28;20462;-81
2023/05/25 03:35:31;;;;;;;12.87;6.37;;;;;;;;;;5092776;28;20416;-81
2023/05/25 03:37:57;;;;;;;12.43;7.37;;;;;;;;;;5074880;28;20246;-81
2023/05/25 03:40:23;;;;;;;11.40;6.07;;;;;;;;;;5093267;28;20177;-79
2023/05/25 03:42:49;;;;;;;19.10;7.13;;;;;;;;;;5113221;28;20409;-79
2023/05/25 03:45:15;;;;;;;10.80;5.40;;;;;;;;;;5113092;28;20889;-79
2023/05/25 03:47:41;;;;;;;12.27;6.07;;;;;;;;;;5113160;28;20414;-80
2023/05/25 03:50:07;;;;;;;12.70;6.77;;;;;;;;;;5113202;28;20463;-79
2023/05/25 03:52:33;;;;;;;19.17;7.17;;;;;;;;;;5112716;28;20448;-79
2023/05/25 03:55:04;;;;;;;7.50;5.00;;;;;;;;;;5113177;28;20406;-79
2023/05/25 03:57:29;;;;;;;7.37;4.93;;;;;;;;;;5113093;28;20447;-79
2023/05/25 03:59:55;;;;;;;9.20;5.97;;;;;;;;;;5113204;28;20496;-79
2023/05/25 04:02:21;;;;;;;9.70;4.30;;;;;;;;;;5113050;28;20410;-80
2023/05/25 04:04:50;;;;;;;10.03;4.10;;;;;;;;;;5094654;28;20478;-80
2023/05/25 04:07:16;;;;;;;8.03;5.00;;;;;;;;;;5112737;28;20631;-80
2023/05/25 04:09:42;;;;;;;9.43;4.23;;;;;;;;;;5113090;28;20501;-80
2023/05/25 04:12:08;;;;;;;8.60;3.83;;;;;;;;;;5112960;28;20497;-80
2023/05/25 04:14:34;;;;;;;6.43;4.73;;;;;;;;;;5112968;28;20311;-80
2023/05/25 04:17:00;;;;;;;9.50;5.67;;;;;;;;;;5113043;28;20410;-80
2023/05/25 04:19:26;;;;;;;8.00;4.80;;;;;;;;;;5112950;28;20414;-80
2023/05/25 04:21:52;;;;;;;8.63;5.00;;;;;;;;;;5112637;28;20452;-80
2023/05/25 04:24:18;;;;;;;8.73;4.07;;;;;;;;;;5112908;28;20775;-80
2023/05/25 04:26:45;;;;;;;8.97;4.77;;;;;;;;;;5112868;28;20498;-80
2023/05/25 04:29:12;;;;;;;6.17;3.87;;;;;;;;;;5112922;28;20179;-80
2023/05/25 04:31:39;;;;;;;11.03;4.83;;;;;;;;;;5112918;28;20457;-80
2023/05/25 04:34:05;;;;;;;6.20;4.50;;;;;;;;;;5094586;28;20564;-80
2023/05/25 04:36:31;;;;;;;6.90;3.50;;;;;;;;;;5112476;28;20541;-80
2023/05/25 04:39:01;;;;;;;5.77;3.67;;;;;;;;;;5114881;28;20411;-80
2023/05/25 04:41:28;;;;;;;9.13;3.40;;;;;;;;;;5116519;28;20403;-80
2023/05/25 04:43:54;;;;;;;13.03;4.40;;;;;;;;;;5116427;28;20420;-80
2023/05/25 04:46:20;;;;;;;5.57;3.73;;;;;;;;;;5116280;28;20411;-79
2023/05/25 04:48:46;;;;;;;5.50;3.63;;;;;;;;;;5116329;28;20925;-80
2023/05/25 04:51:15;;;;;;;5.73;4.53;;;;;;;;;;5115891;28;20903;-80
2023/05/25 04:53:41;;;;;;;11.63;5.10;;;;;;;;;;5116006;28;20492;-80
2023/05/25 04:56:07;;;;;;;6.13;3.93;;;;;;;;;;5116099;28;20407;-79
2023/05/25 04:58:33;;;;;;;9.67;4.10;;;;;;;;;;5116033;28;20429;-80
2023/05/25 05:00:59;;;;;;;5.07;3.33;;;;;;;;;;5115869;28;20820;-80
2023/05/25 05:03:24;;;;;;;9.57;4.60;;;;;;;;;;5115586;28;20548;-80
2023/05/25 05:05:50;;;;;;;6.40;3.57;;;;;;;;;;5115630;28;20399;-80
2023/05/25 05:08:16;;;;;;;5.90;3.77;;;;;;;;;;5115929;28;20188;-80
2023/05/25 05:10:42;;;;;;;7.83;3.37;;;;;;;;;;5115823;28;20395;-80
2023/05/25 05:13:10;;;;;;;7.80;4.00;;;;;;;;;;5115712;28;20238;-80
2023/05/25 05:15:35;;;;;;;4.67;4.13;;;;;;;;;;5115649;28;20476;-81
2023/05/25 05:18:02;;;;;;;4.53;3.63;;;;;;;;;;5115853;28;20495;-80
2023/05/25 05:20:28;;;;;;;8.47;3.57;;;;;;;;;;5115292;28;20464;-80
2023/05/25 05:22:54;;;;;;;8.70;3.40;;;;;;;;;;5115130;28;20404;-80
2023/05/25 05:25:20;;;;;;;6.43;3.00;;;;;;;;;;5104215;28;20460;-80
2023/05/25 05:27:49;;;;;;;4.30;2.60;;;;;;;;;;5107812;28;20861;-81
2023/05/25 05:30:15;;;;;;;6.03;3.00;;;;;;;;;;5114326;28;20503;-81
2023/05/25 05:32:41;;;;;;;10.47;2.60;;;;;;;;;;5113831;28;20568;-81
2023/05/25 05:35:07;;;;;;;5.97;2.27;;;;;;;;;;5114981;28;20414;-80
2023/05/25 05:37:33;;;;;;;5.20;2.50;;;;;;;;;;5115017;28;20409;-80
2023/05/25 05:39:59;;;;;;;7.33;3.27;;;;;;;;;;5114190;28;20423;-81
2023/05/25 05:42:25;;;;;;;7.53;2.37;;;;;;;;;;5115211;28;20619;-81
2023/05/25 05:44:54;;;;;;;5.97;2.40;;;;;;;;;;5115137;28;20591;-80
2023/05/25 05:47:21;;;;;;;9.73;2.10;;;;;;;;;;5115043;28;20401;-80
2023/05/25 05:49:46;;;;;;;6.60;2.93;;;;;;;;;;5114554;28;20416;-80
2023/05/25 05:52:12;;;;;;;8.40;2.73;;;;;;;;;;5114659;28;20414;-80
2023/05/25 05:54:38;;;;;;;7.40;2.80;;;;;;;;;;5114878;28;20208;-81
2023/05/25 05:57:05;;;;;;;8.20;3.90;;;;;;;;;;5114525;28;20414;-81
2023/05/25 05:59:31;;;;;;;8.33;2.70;;;;;;;;;;5114896;28;20983;-81
2023/05/25 06:01:57;;;;;;;5.57;2.17;;;;;;;;;;5114883;28;20444;-81
2023/05/25 06:04:27;;;;;;;6.47;2.50;;;;;;;;;;5114597;28;20962;-80
2023/05/25 06:06:53;;;;;;;5.93;1.63;;;;;;;;;;5096538;28;20691;-82
2023/05/25 06:09:19;;;;;;;10.17;2.20;;;;;;;;;;5079574;28;20544;-81
2023/05/25 06:11:45;;;;;;;3.80;1.63;;;;;;;;;;5073980;28;20405;-81
2023/05/25 06:14:10;;;;;;;3.47;1.17;;;;;;;;;;5073792;28;20471;-81
2023/05/25 06:16:36;;;;;;;6.80;2.43;;;;;;;;;;5073852;28;20691;-81
2023/05/25 06:19:02;;;;;;;3.80;1.20;;;;;;;;;;5073907;28;20205;-81
2023/05/25 06:21:28;;;;;;;2.23;0.90;;;;;;;;;;5073488;28;20414;-83
2023/05/25 06:23:56;;;;;;;6.47;1.80;;;;;;;;;;5073840;28;20212;-80
2023/05/25 06:26:22;;;;;;;5.37;2.07;;;;;;;;;;5073663;28;20415;-83
2023/05/25 06:28:49;;;;;;;7.67;1.80;;;;;;;;;;5073682;28;20459;-81
2023/05/25 06:31:15;;;;;;;6.70;1.53;;;;;;;;;;5073647;28;20501;-81
2023/05/25 06:33:41;;;;;;;6.67;1.93;;;;;;;;;;5073252;28;21056;-81
2023/05/25 06:36:07;;;;;;;9.93;2.10;;;;;;;;;;5073096;28;20508;-81
2023/05/25 06:38:33;;;;;;;6.60;1.80;;;;;;;;;;5073422;28;20413;-81
2023/05/25 06:41:02;;;;;;;6.83;1.80;;;;;;;;;;5073420;28;20410;-82
2023/05/25 06:43:28;;;;;;;6.33;1.73;;;;;;;;;;5073368;28;20417;-80
2023/05/25 06:45:54;;;;;;;6.40;2.03;;;;;;;;;;5055559;28;20418;-79
2023/05/25 06:48:20;;;;;;;3.10;0.97;;;;;;;;;;5073301;28;20422;-79
2023/05/25 06:50:46;;;;;;;6.13;2.17;;;;;;;;;;5072981;28;20842;-78
2023/05/25 06:53:12;;;;;;;8.57;1.70;;;;;;;;;;5073389;28;20467;-78
2023/05/25 06:55:37;;;;;;;5.20;1.60;;;;;;;;;;5073351;28;20494;-77
2023/05/25 06:58:03;;;;;;;5.60;1.83;;;;;;;;;;5080160;28;20429;-77
2023/05/25 07:00:29;;;;;;;7.23;1.90;;;;;;;;;;5103014;28;20182;-78
2023/05/25 07:02:55;;;;;;;5.77;1.10;;;;;;;;;;5113547;28;20542;-78
2023/05/25 07:05:21;;;;;;;9.30;2.07;;;;;;;;;;5113455;28;20451;-78
2023/05/25 07:07:47;;;;;;;4.67;1.60;;;;;;;;;;5113450;28;20404;-77
2023/05/25 07:10:13;;;;;;;6.80;1.40;;;;;;;;;;5113619;28;20167;-77
2023/05/25 07:12:39;;;;;;;5.43;1.70;;;;;;;;;;5112994;28;20547;-78
2023/05/25 07:15:05;;;;;;;5.80;1.13;;;;;;;;;;5113451;28;20773;-77
2023/05/25 07:17:31;;;;;;;5.63;2.10;;;;;;;;;;5113515;28;20177;-77
2023/05/25 07:19:57;;;;;;;7.27;2.00;;;;;;;;;;5113249;28;20957;-77
2023/05/25 07:22:23;;;;;;;5.67;1.90;;;;;;;;;;5113513;28;20170;-78
2023/05/25 07:24:49;;;;;;;6.83;1.10;;;;;;;;;;5114322;28;20832;-78
2023/05/25 07:27:15;;;;;;;5.03;2.00;;;;;;;;;;5095271;28;20710;-78
2023/05/25 07:29:41;;;;;;;4.70;1.00;;;;;;;;;;5113420;28;20413;-78
2023/05/25 07:32:07;;;;;;;6.07;1.60;;;;;;;;;;5113461;28;20417;-78
2023/05/25 07:34:33;;;;;;;4.17;1.97;;;;;;;;;;5113194;28;20207;-78
2023/05/25 07:36:59;;;;;;;3.80;1.33;;;;;;;;;;5113002;28;20401;-78
2023/05/25 07:39:25;;;;;;;4.67;1.73;;;;;;;;;;5113310;28;20469;-80
2023/05/25 07:41:51;;;;;;;6.50;1.77;;;;;;;;;;5113501;28;20406;-80
2023/05/25 07:44:17;;;;;;;4.23;1.20;;;;;;;;;;5113336;28;20402;-79
2023/05/25 07:46:44;;;;;;;7.00;1.67;;;;;;;;;;5113062;28;20175;-79
2023/05/25 07:49:15;;;;;;;6.20;1.57;;;;;;;;;;5113272;28;20410;-79
2023/05/25 07:51:44;;;;;;;5.30;1.70;;;;;;;;;;5112877;28;20427;-79
2023/05/25 07:54:10;;;;;;;7.20;2.40;;;;;;;;;;5113148;28;20987;-79
2023/05/25 07:56:36;;;;;;;4.73;0.93;;;;;;;;;;5094949;28;20825;-78
2023/05/25 07:59:02;;;;;;;4.37;2.03;;;;;;;;;;5113097;28;20445;-80
2023/05/25 08:01:28;;;;;;;4.70;2.07;;;;;;;;;;5112616;28;20409;-80
2023/05/25 08:03:54;;;;;;;6.83;1.80;;;;;;;;;;5085610;28;20522;-79
2023/05/25 08:06:20;;;;;;;2.80;1.20;;;;;;;;;;5073655;28;20168;-80
2023/05/25 08:08:46;;;;;;;5.60;1.60;;;;;;;;;;5091959;28;20914;-79
2023/05/25 08:11:12;;;;;;;5.50;1.57;;;;;;;;;;5092007;28;20411;-79
2023/05/25 08:13:38;;;;;;;5.60;1.63;;;;;;;;;;5094988;28;20520;-79
2023/05/25 08:16:04;;;;;;;6.93;1.80;;;;;;;;;;5095573;28;20414;-80
2023/05/25 08:18:30;;;;;;;5.30;1.70;;;;;;;;;;5078640;28;20488;-79
2023/05/25 08:21:02;;;;;;;4.70;1.23;;;;;;;;;;5075603;28;20415;-80
2023/05/25 08:23:28;;;;;;;4.10;1.87;;;;;;;;;;5075479;28;20224;-81
2023/05/25 08:25:54;;;;;;;4.47;1.90;;;;;;;;;;5075658;28;20415;-81
2023/05/25 08:28:21;;;;;;;5.03;1.60;;;;;;;;;;5075534;28;21324;-79
2023/05/25 08:30:47;;;;;;;5.37;1.83;;;;;;;;;;5075434;28;20184;-79
2023/05/25 08:33:13;;;;;;;5.37;1.47;;;;;;;;;;5057525;28;20478;-80
2023/05/25 08:35:41;;;;;;;7.63;2.00;;;;;;;;;;5074895;28;20982;-82
2023/05/25 08:38:07;;;;;;;4.73;2.03;;;;;;;;;;5076303;28;20419;-83
2023/05/25 08:40:33;;;;;;;6.50;1.60;;;;;;;;;;5076551;28;20426;-84
2023/05/25 08:42:59;;;;;;;3.70;1.70;;;;;;;;;;5093957;28;20820;-82
2023/05/25 08:45:25;;;;;;;6.60;1.53;;;;;;;;;;5098721;28;20203;-81
2023/05/25 08:47:53;;;;;;;6.50;2.13;;;;;;;;;;5105363;28;20452;-82
2023/05/25 08:50:19;;;;;;;4.10;1.73;;;;;;;;;;5116034;28;20267;-81
2023/05/25 08:52:45;;;;;;;5.00;2.10;;;;;;;;;;5116558;28;20446;-81
2023/05/25 08:55:12;;;;;;;6.77;2.17;;;;;;;;;;5116581;28;20406;-78
2023/05/25 08:57:48;;;;;;;6.37;2.67;;;;;;;;;;5115976;28;20413;-80
2023/05/25 09:00:14;;;;;;;8.73;2.10;;;;;;;;;;5108053;28;20937;-93
2023/05/25 09:02:57;;;;;;;7.60;2.00;;;;;;;;;;5099276;28;20403;-88
2023/05/25 09:05:23;;;;;;;5.73;1.80;;;;;;;;;;5097910;28;20415;-81
2023/05/25 09:07:50;;;;;;;9.67;2.17;;;;;;;;;;5105385;28;20403;-94
2023/05/25 09:10:20;;;;;;;4.50;1.30;;;;;;;;;;5101418;28;20442;-78
2023/05/25 09:12:47;;;;;;;7.57;1.50;;;;;;;;;;5103023;28;20442;-81
2023/05/25 09:15:13;;;;;;;6.70;2.00;;;;;;;;;;5104456;28;20414;-87
2023/05/25 09:17:40;;;;;;;5.97;1.77;;;;;;;;;;5123616;28;20425;-89
2023/05/25 09:20:07;;;;;;;4.37;1.37;;;;;;;;;;5100026;28;20797;-88
2023/05/25 09:22:33;;;;;;;4.90;1.27;;;;;;;;;;5118347;28;20410;-83
2023/05/25 09:25:00;;;;;;;7.27;2.20;;;;;;;;;;5120410;28;20443;-86
2023/05/25 09:27:25;;;;;;;6.37;1.93;;;;;;;;;;5119780;28;20409;-86
2023/05/25 09:29:52;;;;;;;5.97;2.30;;;;;;;;;;5120386;28;20462;-81
2023/05/25 09:32:18;;;;;;;5.30;1.60;;;;;;;;;;5119505;28;20163;-85
2023/05/25 09:34:47;;;;;;;8.37;2.17;;;;;;;;;;5120206;28;20473;-84
2023/05/25 09:37:14;;;;;;;4.50;2.03;;;;;;;;;;5118785;28;20770;-89
2023/05/25 09:39:41;;;;;;;8.43;3.17;;;;;;;;;;5121233;28;20412;-83
2023/05/25 09:42:07;;;;;;;4.97;1.50;;;;;;;;;;5120796;28;20405;-84
2023/05/25 09:44:33;;;;;;;7.17;2.50;;;;;;;;;;5100318;28;20449;-91
2023/05/25 09:46:59;;;;;;;6.00;1.77;;;;;;;;;;5122017;28;20288;-91
2023/05/25 09:49:25;;;;;;;9.37;1.83;;;;;;;;;;5120995;28;20531;-87
2023/05/25 09:51:51;;;;;;;6.37;1.60;;;;;;;;;;5118537;28;20175;-82
2023/05/25 09:54:17;;;;;;;8.20;1.50;;;;;;;;;;5117165;28;20499;-84
2023/05/25 09:56:44;;;;;;;6.93;2.03;;;;;;;;;;5116129;28;20397;-81
2023/05/25 09:59:11;;;;;;;6.73;2.30;;;;;;;;;;5118648;28;20794;-82
2023/05/25 10:01:37;;;;;;;7.37;2.40;;;;;;;;;;5115479;28;20409;-92
2023/05/25 10:04:03;;;;;;;6.83;1.87;;;;;;;;;;5115281;28;20461;-80
2023/05/25 10:06:30;;;;;;;7.00;1.73;;;;;;;;;;5115248;28;20281;-89
2023/05/25 10:08:57;;;;;;;8.57;2.07;;;;;;;;;;5115402;28;20417;-85
2023/05/25 10:11:25;;;;;;;8.13;2.00;;;;;;;;;;5115342;28;20889;-92
2023/05/25 10:13:52;;;;;;;8.67;1.60;;;;;;;;;;5115160;28;20421;-84
2023/05/25 10:16:21;;;;;;;7.97;1.90;;;;;;;;;;5114935;28;20398;-87
2023/05/25 10:18:50;;;;;;;5.27;1.10;;;;;;;;;;5114799;28;20416;-82
2023/05/25 10:21:17;;;;;;;6.60;2.23;;;;;;;;;;5114538;28;20406;-88
2023/05/25 10:23:47;;;;;;;5.97;1.50;;;;;;;;;;5114007;28;20473;-81
2023/05/25 10:26:20;;;;;;;5.77;2.00;;;;;;;;;;5088057;28;21015;-79
2023/05/25 10:28:47;;;;;;;5.60;1.80;;;;;;;;;;5092562;28;20398;-80
2023/05/25 10:31:14;;;;;;;5.00;1.37;;;;;;;;;;5092806;28;20410;-79
2023/05/25 10:33:40;;;;;;;10.20;1.93;;;;;;;;;;5092857;28;20460;-79
2023/05/25 10:36:06;;;;;;;7.27;1.97;;;;;;;;;;5092433;28;20411;-80
2023/05/25 10:38:32;;;;;;;8.63;2.00;;;;;;;;;;5092856;28;20399;-81
2023/05/25 10:40:59;;;;;;;9.97;2.10;;;;;;;;;;5092636;28;20418;-79
2023/05/25 10:43:25;;;;;;;5.00;1.50;;;;;;;;;;5092495;28;20511;-80
2023/05/25 10:45:52;;;;;;;6.10;2.27;;;;;;;;;;5092654;28;20779;-78
2023/05/25 10:48:18;;;;;;;5.73;1.60;;;;;;;;;;5099629;28;20474;-79
2023/05/25 10:50:50;;;;;;;7.77;2.33;;;;;;;;;;5113418;28;20417;-79
2023/05/25 10:53:16;;;;;;;7.03;2.50;;;;;;;;;;5113964;28;20437;-79
2023/05/25 10:55:43;;;;;;;6.70;2.00;;;;;;;;;;5096302;28;20413;-79
2023/05/25 10:58:16;;;;;;;7.83;2.10;;;;;;;;;;5098944;28;20418;-79
2023/05/25 11:00:42;;;;;;;4.57;1.30;;;;;;;;;;5093455;28;20402;-79
2023/05/25 11:03:08;;;;;;;5.73;2.00;;;;;;;;;;5093081;28;20529;-79
2023/05/25 11:05:37;;;;;;;5.13;2.40;;;;;;;;;;5093058;28;20442;-80
2023/05/25 11:08:04;;;;;;;7.53;2.50;;;;;;;;;;5093316;28;20418;-79
2023/05/25 11:10:48;;;;;;;5.97;1.83;;;;;;;;;;5093307;28;20498;-79
2023/05/25 11:13:33;;;;;;;6.20;2.43;;;;;;;;;;5093199;28;20406;-80
2023/05/25 11:16:18;;;;;;;7.07;2.20;;;;;;;;;;5093194;28;20403;-79
2023/05/25 11:18:48;;;;;;;8.40;2.10;;;;;;;;;;5093221;28;20810;-79
2023/05/25 11:21:20;;;;;;;8.50;2.53;;;;;;;;;;5092692;28;20426;-78
2023/05/25 11:24:01;;;;;;;8.03;2.00;;;;;;;;;;5093049;28;20586;-79
2023/05/25 11:26:30;;;;;;;6.40;2.33;;;;;;;;;;5092856;28;20414;-78
2023/05/25 11:28:57;;;;;;;6.73;1.70;;;;;;;;;;5093044;28;20409;-78
2023/05/25 11:31:31;;;;;;;6.93;2.40;;;;;;;;;;5092863;28;20762;-78
2023/05/25 11:34:00;;;;;;;9.30;2.03;;;;;;;;;;5092973;28;20910;-78
2023/05/25 11:36:30;;;;;;;6.60;2.07;;;;;;;;;;5092583;28;20501;-78
2023/05/25 11:39:00;;;;;;;7.17;2.47;;;;;;;;;;5074995;28;20751;-78
2023/05/25 11:41:26;;;;;;;5.70;2.10;;;;;;;;;;5092999;28;20415;-78
2023/05/25 11:43:53;;;;;;;10.33;3.27;;;;;;;;;;5092977;28;20543;-78
2023/05/25 11:46:20;;;;;;;5.67;3.10;;;;;;;;;;5092843;28;20173;-79
2023/05/25 11:48:50;;;;;;;10.17;2.90;;;;;;;;;;5078332;28;20422;-78
2023/05/25 11:51:17;;;;;;;6.47;2.40;;;;;;;;;;5096777;28;20456;-78
2023/05/25 11:53:43;;;;;;;9.20;2.23;;;;;;;;;;5096952;28;20410;-78
2023/05/25 11:56:10;;;;;;;8.47;3.23;;;;;;;;;;5096982;28;20415;-78
2023/05/25 11:58:36;;;;;;;8.50;2.03;;;;;;;;;;5096785;28;20421;-78
2023/05/25 12:01:15;;;;;;;8.10;2.63;;;;;;;;;;5096856;28;20785;-79
2023/05/25 12:03:41;;;;;;;9.73;2.60;;;;;;;;;;5096559;28;21032;-78
2023/05/25 12:06:07;;;;;;;11.97;2.93;;;;;;;;;;5096487;28;20414;-79
2023/05/25 12:08:33;;;;;;;6.03;2.37;;;;;;;;;;5096699;28;20481;-78
2023/05/25 12:10:59;;;;;;;6.07;2.57;;;;;;;;;;5096692;28;20411;-79
2023/05/25 12:13:25;;;;;;;8.57;2.37;;;;;;;;;;5078386;28;20521;-78
2023/05/25 12:15:52;;;;;;;7.40;2.73;;;;;;;;;;5100284;28;20794;-78
2023/05/25 12:18:18;;;;;;;8.83;2.30;;;;;;;;;;5106377;28;20413;-78
2023/05/25 12:20:44;;;;;;;5.63;1.73;;;;;;;;;;5102395;28;20505;-78
2023/05/25 12:23:10;;;;;;;8.43;2.53;;;;;;;;;;5104304;28;20492;-79
2023/05/25 12:25:36;;;;;;;10.93;3.53;;;;;;;;;;5105520;28;20984;-78
2023/05/25 12:28:11;;;;;;;10.13;2.70;;;;;;;;;;5104797;28;20577;-79
2023/05/25 12:30:37;;;;;;;10.20;3.10;;;;;;;;;;5103708;28;20405;-79
2023/05/25 12:33:03;;;;;;;6.40;2.37;;;;;;;;;;5104456;28;20558;-79
2023/05/25 12:35:43;;;;;;;13.03;3.00;;;;;;;;;;5106053;28;20406;-78
2023/05/25 12:38:10;;;;;;;11.60;3.90;;;;;;;;;;5101467;28;20402;-78
2023/05/25 12:40:36;;;;;;;10.27;3.03;;;;;;;;;;5105382;28;20406;-79
2023/05/25 12:43:02;;;;;;;8.10;2.57;;;;;;;;;;5106228;28;20462;-79
2023/05/25 12:45:28;;;;;;;7.77;3.10;;;;;;;;;;5103889;28;20176;-79
2023/05/25 12:47:54;;;;;;;9.10;2.90;;;;;;;;;;5110107;28;20576;-79
2023/05/25 12:50:19;;;;;;;10.20;3.17;;;;;;;;;;5097478;28;20183;-79
2023/05/25 12:52:46;;;;;;;8.10;3.00;;;;;;;;;;5115339;28;20620;-79
2023/05/25 12:55:19;;;;;;;9.13;3.17;;;;;;;;;;5095526;28;20180;-79
2023/05/25 12:57:46;;;;;;;8.70;3.10;;;;;;;;;;5095493;28;20493;-79
2023/05/25 13:00:12;;;;;;;8.47;3.67;;;;;;;;;;5095711;28;20450;-79
2023/05/25 13:02:41;;;;;;;7.23;2.70;;;;;;;;;;5115976;28;20413;-79
2023/05/25 13:05:16;;;;;;;6.53;2.80;;;;;;;;;;5115485;28;20472;-79
2023/05/25 13:07:43;;;;;;;7.90;2.20;;;;;;;;;;5115859;28;20809;-79
2023/05/25 13:10:12;;;;;;;8.80;3.57;;;;;;;;;;5115874;28;20406;-79
2023/05/25 13:12:38;;;;;;;9.97;3.40;;;;;;;;;;5115446;28;20417;-79
2023/05/25 13:15:04;;;;;;;7.17;2.07;;;;;;;;;;5115471;28;20409;-79
2023/05/25 13:17:30;;;;;;;7.30;2.50;;;;;;;;;;5115420;28;20398;-79
2023/05/25 13:19:56;;;;;;;8.97;2.50;;;;;;;;;;5096730;28;20417;-79
2023/05/25 13:22:22;;;;;;;8.83;2.67;;;;;;;;;;5115260;28;20194;-79
2023/05/25 13:24:48;;;;;;;9.00;3.80;;;;;;;;;;5115222;28;20223;-79
2023/05/25 13:27:14;;;;;;;10.00;3.13;;;;;;;;;;5115264;28;20254;-80
2023/05/25 13:29:40;;;;;;;9.00;2.57;;;;;;;;;;5114927;28;20175;-79
2023/05/25 13:32:06;;;;;;;6.87;2.23;;;;;;;;;;5115219;28;20171;-79
2023/05/25 13:34:32;;;;;;;5.10;2.43;;;;;;;;;;5114641;28;20470;-79
2023/05/25 13:36:59;;;;;;;6.13;2.07;;;;;;;;;;5115180;28;20890;-79
2023/05/25 13:39:24;;;;;;;7.10;2.20;;;;;;;;;;5114997;28;20410;-79
2023/05/25 13:41:50;;;;;;;7.93;2.70;;;;;;;;;;5115076;28;20397;-79
2023/05/25 13:44:16;;;;;;;7.40;2.53;;;;;;;;;;5096533;28;20737;-79
2023/05/25 13:46:42;;;;;;;8.50;3.37;;;;;;;;;;5114699;28;20217;-78
2023/05/25 13:49:09;;;;;;;5.10;3.17;;;;;;;;;;5114424;28;20171;-79
2023/05/25 13:51:37;;;;;;;10.97;2.50;;;;;;;;;;5114825;28;20168;-79
2023/05/25 13:54:03;;;;;;;7.00;3.23;;;;;;;;;;5114776;28;20773;-79
2023/05/25 13:56:32;;;;;;;10.50;2.90;;;;;;;;;;5114454;28;20492;-79
2023/05/25 13:58:58;;;;;;;9.23;2.80;;;;;;;;;;5114580;28;20416;-78
2023/05/25 14:01:27;;;;;;;8.90;3.13;;;;;;;;;;5114595;28;20404;-78
2023/05/25 14:03:54;;;;;;;11.20;2.80;;;;;;;;;;5113999;28;20473;-79
2023/05/25 14:06:20;;;;;;;10.63;2.80;;;;;;;;;;5114508;28;20491;-78
2023/05/25 14:08:46;;;;;;;6.87;2.50;;;;;;;;;;5096152;28;20421;-78
2023/05/25 14:11:12;;;;;;;12.33;3.60;;;;;;;;;;5095551;28;20179;-78
2023/05/25 14:13:38;;;;;;;7.27;3.53;;;;;;;;;;5114210;28;20446;-78
2023/05/25 14:16:07;;;;;;;12.77;2.90;;;;;;;;;;5082422;28;20203;-78
2023/05/25 14:18:33;;;;;;;11.00;3.80;;;;;;;;;;5093842;28;20176;-78
2023/05/25 14:20:59;;;;;;;10.33;3.20;;;;;;;;;;5093482;28;20922;-78
2023/05/25 14:23:25;;;;;;;11.87;4.00;;;;;;;;;;5093732;28;20196;-79
2023/05/25 14:25:51;;;;;;;9.53;3.23;;;;;;;;;;5075513;28;20930;-78
2023/05/25 14:28:17;;;;;;;6.13;2.83;;;;;;;;;;5093771;28;20414;-78
2023/05/25 14:30:43;;;;;;;7.37;2.60;;;;;;;;;;5093314;28;20464;-79
2023/05/25 14:33:14;;;;;;;8.90;2.30;;;;;;;;;;5093564;28;20918;-78
2023/05/25 14:35:41;;;;;;;9.07;3.27;;;;;;;;;;5093299;28;20402;-78
2023/05/25 14:38:07;;;;;;;10.53;3.83;;;;;;;;;;5093518;28;20406;-77
2023/05/25 14:40:33;;;;;;;7.70;3.00;;;;;;;;;;5093427;28;20422;-77
2023/05/25 14:42:59;;;;;;;9.23;2.93;;;;;;;;;;5093079;28;20180;-77
2023/05/25 14:45:25;;;;;;;7.80;2.37;;;;;;;;;;5092835;28;20789;-77
2023/05/25 14:47:50;;;;;;;11.83;2.70;;;;;;;;;;5093309;28;20172;-78
2023/05/25 14:50:16;;;;;;;6.37;2.17;;;;;;;;;;5093023;28;20232;-78
2023/05/25 14:52:42;;;;;;;9.53;4.00;;;;;;;;;;5093226;28;20175;-78
2023/05/25 14:55:08;;;;;;;8.60;2.93;;;;;;;;;;5093189;28;20417;-78
2023/05/25 14:57:35;;;;;;;8.90;2.80;;;;;;;;;;5092290;28;20203;-78
2023/05/25 15:00:01;;;;;;;8.00;2.63;;;;;;;;;;5093167;28;20419;-78
2023/05/25 15:02:27;;;;;;;7.87;3.17;;;;;;;;;;5072778;28;20499;-78
2023/05/25 15:04:53;;;;;;;7.53;3.27;;;;;;;;;;5072072;28;20517;-77
2023/05/25 15:07:20;;;;;;;7.53;2.70;;;;;;;;;;5072796;28;20410;-78
2023/05/25 15:09:46;;;;;;;9.20;3.77;;;;;;;;;;5072925;28;20181;-77
2023/05/25 15:12:12;;;;;;;11.63;3.30;;;;;;;;;;5072775;28;20895;-78
2023/05/25 15:14:39;;;;;;;9.40;3.50;;;;;;;;;;5072613;28;20429;-77
2023/05/25 15:17:05;;;;;;;9.70;3.03;;;;;;;;;;5054644;28;20427;-78
2023/05/25 15:19:31;;;;;;;8.80;3.50;;;;;;;;;;5072265;28;20419;-77
2023/05/25 15:21:57;;;;;;;8.33;2.83;;;;;;;;;;5071939;28;20411;-78
2023/05/25 15:24:23;;;;;;;7.33;2.37;;;;;;;;;;5081364;28;20567;-77
2023/05/25 15:26:49;;;;;;;9.47;2.73;;;;;;;;;;5113088;28;20407;-77
2023/05/25 15:29:15;;;;;;;8.20;3.20;;;;;;;;;;5113228;28;20622;-77
2023/05/25 15:31:41;;;;;;;8.17;2.83;;;;;;;;;;5113145;28;20416;-77
2023/05/25 15:34:08;;;;;;;9.50;3.30;;;;;;;;;;5112668;28;20186;-78